Roscoe, Pennsylvania
Current Conditions -  °F | °C
As of 5:53 PM on Wednesday 17 Dec 2014 (Local Time) from KAGC Reporting Station
Overcast Overcast  
Wind Chill: 21°   Ceiling: 2500
Heat Index: 31°   Visibility: 10mi
Dew Point: 21°   Wind: 14mph
Humidity: 67%   Direction: 250°WSW
Pressure: 30.07"   Gusts: 20mph
Location:  40.08°N, 79.87°W
Report Text: KAGC 172253Z 25012G17KT 10SM OVC025 M01/M06 A3007 RMK AO2 SLP197 T10061061
Loading
Personal Weather Stations






























Interactive Weather Map New forecast layout! Learn more

10-Day Weather Forecast

Advertisements
Track Severe Weather on mobile